Latest Coastal Weather Observations for Williamtown

IDN60701

Issued at 6:11 pm EST Saturday 27 August 2016 (issued every 10 minutes, with the page automatically refreshed every 10 minutes)

About coastal observations | Map of coastal stations | Coastal observations for NSW | Marine services | Other Formats
Station Details ID: 061078 Name: WILLIAMTOWN RAAF Lat: -32.79 Lon: 151.84 Height: 9.0 m
Data from the previous 72 hours. | See also: Recent months at Williamtown
Date/Time
EST
Temp
°C
Wind Pressure Rain since
9am
mm
Weather Cloud Vis
km
Sea
Height
m
Swell
Dir  Spd
kts
Gust
kts
hPa Trend Height
m
Period
s
Dir
27/06:00pm 13.2 ENE 5 5 1021.4 F 0.0 - - 10 - - - -
27/05:30pm 14.8 E 6 6 1021.1 - 0.0 - - 10 - - - -
27/05:00pm 15.3 SE 7 9 1021.1 - 0.0 - - 10 - - - -
27/04:30pm 16.1 SE 7 9 1020.9 - 0.0 - - 10 - - - -
27/04:00pm 16.7 ESE 6 7 1020.8 - 0.0 - - 10 - - - -
27/03:30pm 17.3 ESE 6 9 1020.7 - 0.0 - - 10 - - - -
27/03:00pm 17.0 ESE 6 8 1020.9 S 0.0 - - 10 - - - -
27/02:30pm 16.3 SSW 4 7 1021.1 - 0.0 - Partly cloudy 10 - - - -
27/02:00pm 16.6 S 6 10 1021.3 - 0.0 - - 10 - - - -
27/01:30pm 16.0 SSE 6 8 1021.6 - 0.0 - Partly cloudy 10 - - - -
27/01:00pm 16.5 SSW 5 9 1022.0 - 0.0 - Partly cloudy 10 - - - -
27/12:30pm 17.2 W 5 7 1022.4 - 0.0 - Partly cloudy 10 - - - -
27/12:00pm 17.0 W 7 10 1022.7 R 0.0 - Partly cloudy 10 - - - -
27/11:30am 15.5 W 3 6 1023.0 - 0.0 - Partly cloudy 10 - - - -
27/11:00am 15.7 SW 9 14 1023.2 - 0.0 - Partly cloudy 10 - - - -
27/10:30am 15.8 W 8 14 1023.3 - 0.0 - Partly cloudy 10 - - - -
27/10:00am 14.6 WSW 7 13 1023.4 - 0.0 - Partly cloudy 10 - - - -
27/09:30am 13.7 WSW 9 14 1023.4 - 0.0 - Partly cloudy 10 - - - -
27/09:00am 12.0 WNW 9 11 1023.5 R 3.0 - Partly cloudy - - - - -
27/08:30am 10.5 WNW 7 9 1023.4 - 3.0 - Cloudy - - - - -
27/08:00am 8.8 WNW 10 12 1023.2 - 3.0 - Partly cloudy - - - - -
27/07:30am 7.9 NW 9 11 1022.8 - 3.0 - Partly cloudy - - - - -
27/07:00am 7.9 NW 7 9 1022.2 - 3.0 - Partly cloudy 10 - - - -
27/06:30am 7.3 NW 9 10 1021.9 - 3.0 - Partly cloudy 10 - - - -
27/06:00am 7.2 NW 7 8 1021.7 S 3.0 - Mostly cloudy 10 - - - -
27/05:30am 7.1 NW 6 8 1021.4 - 3.0 - Partly cloudy 10 - - - -
27/05:00am 7.2 NW 5 6 1021.4 - 3.0 - Partly cloudy 10 - - - -
27/04:30am 7.2 NW 6 7 1021.1 - 3.0 - Partly cloudy 10 - - - -
27/04:00am 7.2 NW 4 5 1021.1 - 3.0 - Partly cloudy - - - - -
27/03:30am 7.2 NW 7 8 1020.9 - 3.0 - Partly cloudy 10 - - - -
27/03:00am 7.6 NW 7 8 1020.9 R 3.0 Rain Partly cloudy 10 - - - -
27/02:30am 7.8 NW 7 8 1021.0 - 2.8 - Partly cloudy - - - - -
27/02:00am 8.4 W 6 9 1020.9 - 2.8 - Partly cloudy 10 - - - -
27/01:30am 8.4 WNW 9 10 1021.0 - 2.6 - Partly cloudy 10 - - - -
27/01:00am 8.2 WNW 9 10 1021.3 - 2.6 - Partly cloudy 10 - - - -
27/12:30am 8.0 WNW 8 10 1021.4 - 2.6 - Partly cloudy 10 - - - -
27/12:00am 7.5 WNW 6 7 1021.3 R 2.6 - Partly cloudy 10 - - - -
 
Date/Time
EST
Temp
°C
Wind Pressure Rain since
9am
mm
Weather Cloud Vis
km
Sea
Height
m
Swell
Dir  Spd
kts
Gust
kts
hPa Trend Height
m
Period
s
Dir
26/11:30pm 7.6 W 6 7 1021.0 - 2.6 - - 10 - - - -
26/11:00pm 8.0 W 5 5 1021.0 - 2.6 - - 10 - - - -
26/10:30pm 7.8 W 5 6 1020.9 - 2.6 - - - - - - -
26/10:00pm 8.3 W 7 8 1020.7 - 2.6 - - - - - - -
26/09:30pm 9.2 WSW 7 9 1020.8 - 2.6 - Partly cloudy 10 - - - -
26/09:00pm 9.6 WSW 9 11 1020.6 F 2.6 - Cloudy 10 - - - -
26/08:30pm 9.5 W 9 11 1020.3 - 2.6 - - 10 - - - -
26/08:00pm 9.7 W 10 12 1020.2 - 2.6 - Partly cloudy 10 - - - -
26/07:30pm 9.9 W 9 11 1020.4 - 2.4 - Partly cloudy 10 - - - -
26/07:00pm 9.9 W 8 10 1020.2 - 2.4 - Partly cloudy 10 - - - -
26/06:30pm 10.0 WSW 4 6 1020.2 - 1.6 - Partly cloudy - - - - -
26/06:00pm 10.4 WSW 6 7 1019.8 R 0.2 - Cloudy - - - - -
26/05:30pm 10.7 WSW 7 10 1019.1 - 0.2 - Partly cloudy - - - - -
26/05:00pm 11.3 WSW 10 15 1019.0 - 0.2 - Partly cloudy - - - - -
26/04:30pm 11.8 SSW 13 17 1018.6 - 0.0 - Partly cloudy 10 - - - -
26/04:00pm 12.6 SSW 11 16 1018.3 - 0.0 - Partly cloudy 10 - - - -
26/03:30pm 14.7 SSW 14 19 1017.8 - 0.0 Showers Partly cloudy 10 - - - -
26/03:00pm 14.3 SSW 10 17 1017.4 R 0.0 Showers Cloudy 10 - - - -
26/02:30pm 15.9 SW 9 15 1017.3 - 0.0 - Partly cloudy 10 - - - -
26/02:00pm 15.9 SSW 9 13 1017.4 - 0.0 - Partly cloudy 10 - - - -
26/01:30pm 16.3 SW 13 18 1017.5 - 0.0 - Partly cloudy 10 - - - -
26/01:00pm 15.2 SW 13 17 1017.6 - 0.0 - Partly cloudy 10 - - - -
26/12:30pm 15.8 SW 11 18 1018.0 - 0.0 - Partly cloudy 10 - - - -
26/12:00pm 15.8 SW 12 16 1018.3 R 0.0 - Mostly clear 10 - - - -
26/11:30am 15.0 WSW 7 13 1018.5 - 0.0 - Partly cloudy 10 - - - -
26/11:00am 13.8 WSW 8 13 1018.7 - 0.0 - Mostly clear 10 - - - -
26/10:30am 13.3 WSW 9 12 1018.9 - 0.0 - Partly cloudy 10 - - - -
26/10:00am 13.1 W 10 14 1018.8 - 0.0 - Mostly clear 10 - - - -
26/09:30am 11.8 WNW 11 15 1018.8 - 0.0 - Partly cloudy 10 - - - -
26/09:00am 10.7 WNW 12 16 1019.0 R - - Cloudy 10 - - - -
26/08:30am 9.2 WNW 13 15 1018.9 - - - Partly cloudy 10 - - - -
26/08:00am 8.6 WNW 10 14 1018.9 - - - Partly cloudy 10 - - - -
26/07:30am 7.7 WNW 12 16 1018.4 - - - Mostly clear 10 - - - -
26/07:00am 6.7 WNW 11 14 1018.2 - - - Mostly clear 10 - - - -
26/06:30am 5.8 WNW 9 10 1017.8 - - - - - - - - -
26/06:00am 5.9 WNW 11 14 1017.3 R - - - - - - - -
26/05:30am 5.8 WNW 10 14 1017.0 - - - - - - - - -
26/05:29am 5.9 WNW 10 14 1016.9 - - - - - - - - -
26/05:28am 8.4 WNW 9 13 1025.8 - - - - - - - - -
26/05:00am 5.8 WNW 8 10 1016.8 - 2.6 - - - - - - -
26/04:30am 6.4 WNW 9 13 1016.4 - 2.6 - Partly cloudy - - - - -
26/04:00am 6.7 WNW 11 14 1016.2 - 2.6 - Partly cloudy - - - - -
26/03:30am 6.5 WNW 9 12 1016.0 - 2.6 - - - - - - -
26/03:00am 6.8 WNW 9 10 1016.1 R 2.6 - Partly cloudy - - - - -
26/02:30am 7.1 WNW 11 13 1015.9 - 2.6 - Partly cloudy - - - - -
26/02:00am 7.0 WNW 8 9 1016.1 - 2.6 - Partly cloudy - - - - -
26/01:30am 7.4 WNW 7 8 1016.1 - 2.6 - Cloudy 10 - - - -
26/01:00am 6.9 WNW 8 10 1015.9 - 2.6 - Partly cloudy - - - - -
26/12:30am 7.3 WNW 10 10 1015.7 - 2.6 - - 10 - - - -
26/12:00am 7.0 WNW 7 8 1015.4 R 2.6 - Mostly clear 10 - - - -
 
Date/Time
EST
Temp
°C
Wind Pressure Rain since
9am
mm
Weather Cloud Vis
km
Sea
Height
m
Swell
Dir  Spd
kts
Gust
kts
hPa Trend Height
m
Period
s
Dir
25/11:30pm 7.1 WNW 5 5 1015.4 - 2.6 - Partly cloudy 9 - - - -
25/11:00pm 7.8 WNW 5 6 1015.3 - 2.6 - Partly cloudy 10 - - - -
25/10:30pm 7.4 WNW 5 5 1015.1 - 2.6 - Partly cloudy 10 - - - -
25/10:00pm 7.5 SSW 5 6 1015.2 - 2.6 - Cloudy 10 - - - -
25/09:30pm 8.0 NNW 5 7 1014.9 - 2.6 - - 10 - - - -
25/09:00pm 8.2 NNW 5 6 1014.5 F 2.6 - Mostly clear 10 - - - -
25/08:30pm 8.7 NW 6 6 1014.6 - 2.6 - Mostly clear 10 - - - -
25/08:00pm 9.1 WNW 4 5 1014.5 - 2.6 - Partly cloudy 10 - - - -
25/07:30pm 9.2 W 3 5 1014.2 - 2.6 - Partly cloudy 10 - - - -
25/07:00pm 9.4 WNW 4 5 1013.7 - 2.6 - Partly cloudy 10 - - - -
25/06:30pm 10.7 SSW 4 6 1013.4 - 2.6 - Partly cloudy 10 - - - -
25/06:00pm 11.1 SW 7 11 1013.4 R 1.8 Rain Cloudy 10 - - - -
25/05:30pm 12.1 WNW 5 6 1012.6 - 0.8 Showers Mostly clear 10 - - - -
25/05:00pm 12.1 SW 5 6 1012.4 - 0.6 - Partly cloudy 10 - - - -
25/04:30pm 12.0 NNW 7 9 1011.8 - 0.6 Showers Mostly clear 10 - - - -
25/04:00pm 14.6 SW 5 6 1011.5 - 0.2 - Mostly clear 10 - - - -
25/03:30pm 15.7 SW 6 8 1010.9 - 0.2 - Mostly clear 10 - - - -
25/03:00pm 15.6 WSW 5 6 1010.7 R 0.2 - Cloudy 10 - - - -
25/02:30pm 15.2 W 7 9 1010.6 - 0.2 - Mostly clear 10 - - - -
25/02:00pm 15.7 WSW 11 16 1010.3 - 0.2 - Mostly clear 10 - - - -
25/01:30pm 16.5 W 13 17 1010.1 - 0.2 - Mostly clear 10 - - - -
25/01:00pm 16.4 WSW 13 19 1010.1 - 0.2 - Mostly clear 10 - - - -
25/12:30pm 16.0 W 11 14 1010.3 - 0.2 - Partly cloudy 10 - - - -
25/12:00pm 15.3 WNW 14 19 1010.5 R 0.2 Drizzle Cloudy 10 - - - -
25/11:30am 13.0 WNW 11 15 1010.7 - 0.2 - Partly cloudy 10 - - - -
25/11:00am 12.7 WSW 12 16 1010.8 - 0.0 - Mostly cloudy 10 - - - -
25/10:30am 12.9 WSW 16 22 1010.6 - 0.0 - Partly cloudy 10 - - - -
25/10:00am 13.3 W 12 17 1010.4 - 0.0 - Partly cloudy 10 - - - -
25/09:30am 12.4 W 12 16 1010.4 - 0.0 - Partly cloudy 10 - - - -
25/09:00am 12.9 WNW 13 17 1010.1 S 8.4 - Cloudy 10 - - - -
25/08:30am 10.8 WNW 10 14 1010.0 - 8.4 - Partly cloudy 10 - - - -
25/08:00am 10.2 WNW 9 13 1009.9 - 8.4 - Partly cloudy 10 - - - -
25/07:30am 9.5 WNW 10 15 1009.7 - 8.2 Showers Cloudy 10 - - - -
25/07:00am 9.1 WNW 10 14 1009.4 - 8.2 - Mostly cloudy 10 - - - -
25/06:30am 9.0 WNW 9 16 1009.1 - 8.2 - Partly cloudy 10 - - - -
25/06:00am 9.1 WNW 9 13 1008.8 R 7.4 Rain Cloudy - - - - -
25/05:30am 9.7 WNW 9 12 1008.3 - 6.6 - Partly cloudy - - - - -
25/05:00am 9.7 WNW 10 15 1007.8 - 6.6 - Partly cloudy - - - - -
25/04:30am 9.6 W 9 11 1007.4 - 6.6 - Partly cloudy - - - - -
25/04:00am 9.5 WNW 13 16 1007.0 - 6.6 - Partly cloudy - - - - -
25/03:30am 9.4 WNW 13 16 1006.8 - 6.6 - Partly cloudy - - - - -
25/03:00am 10.0 W 11 17 1006.5 R 6.6 - Cloudy - - - - -
25/02:30am 10.7 W 13 18 1006.4 - 6.6 - Partly cloudy - - - - -
25/02:00am 10.7 W 12 16 1006.4 - 6.6 - Cloudy - - - - -
25/01:30am 10.8 WSW 13 18 1006.1 - 6.6 - Partly cloudy - - - - -
25/01:00am 10.7 W 16 23 1006.5 - 6.6 - Partly cloudy - - - - -
25/12:30am 10.6 W 14 19 1006.4 - 6.6 - Cloudy - - - - -
25/12:00am 10.8 W 15 19 1006.1 R 6.6 - Mostly cloudy - - - - -
 
Date/Time
EST
Temp
°C
Wind Pressure Rain since
9am
mm
Weather Cloud Vis
km
Sea
Height
m
Swell
Dir  Spd
kts
Gust
kts
hPa Trend Height
m
Period
s
Dir
24/11:30pm 11.3 WSW 15 21 1005.7 - 6.6 - Cloudy 10 - - - -
24/11:00pm 11.8 WSW 13 19 1005.4 - 6.6 - Partly cloudy 10 - - - -
24/10:30pm 12.4 W 11 14 1005.8 - 6.4 - Cloudy 10 - - - -
24/10:00pm 12.6 W 8 12 1006.1 - 6.2 - Partly cloudy 10 - - - -
24/09:49pm 12.7 W 8 10 1006.1 - 6.2 - Partly cloudy 10 - - - -
24/09:30pm 12.8 WNW 8 10 1005.9 - 6.2 - Partly cloudy 9 - - - -
24/09:25pm 12.9 WNW 7 9 1005.9 - 6.2 - Partly cloudy 8 - - - -
24/09:09pm 12.8 NW 8 10 1005.9 - 5.8 - Partly cloudy 8 - - - -
24/09:00pm 12.9 NW 8 11 1006.0 F 5.2 Rain Cloudy 7 - - - -
24/08:30pm 12.9 NW 7 9 1006.1 - 3.8 - Partly cloudy 5 - - - -
24/08:05pm 12.9 WNW 6 6 1005.8 - 2.6 - Partly cloudy 6 - - - -
24/08:00pm 12.9 WNW 6 7 1005.8 - 2.2 - Mostly clear 6 - - - -
24/07:30pm 13.1 NNW 6 8 1005.8 - 1.6 Rain Partly cloudy 10 - - - -
24/07:00pm 13.1 WNW 6 7 1005.7 - 1.6 - Mostly clear 10 - - - -
24/06:30pm 13.1 NNW 5 7 1005.4 - 1.6 - Mostly clear 10 - - - -

Other Formats:

Comma delimited format used in spreadsheet applications
http://www.bom.gov.au/fwo/IDN60701/IDN60701.94776.axf

JavaScript Object Notation format (JSON) in row-major order
http://www.bom.gov.au/fwo/IDN60701/IDN60701.94776.json